Huvudsida
METAR-TAF:

METAR-TAF

Flygplatser :

Jeddah, Saudiarabien

latitud: 21-42N, longitud: 039-11E, höjd: 15 m

Aktuellt väderrapport

Denna rapport gjordes för 51 minuter sedan, klockan 04:00 UTC
Vind 3 kt från nord/nordost
Temperatur 23°C
Fuktighet 69%
Tryck 1007 hPa
Sikt 10 km eller mer
Inga moln under 1 500 m eller inga cumulonimbus

METAR: OEJN 230400Z 03003KT CAVOK 23/17 Q1007 NOSIG

Tid: 07:51 (04:51 UTC)

Väderprognos

Denna rapport gjordes för 5 timmar och 51 minuter sedan, klockan 23:00 UTC
Prognos gäller från 23 kl. 00 UTC till 24 kl. 06 UTC
Vind 6 kt från ost
Sikt: 7000 m
Få moln på en höjd av 4000 ft
Blir
från 23 kl. 06 UTC till 23 kl. 08 UTC
Vind 12 kt från sydväst
Sikt 10 km eller mer
Spridda moln på en höjd av 4000 ft

TAF: OEJN 222300Z 2300/2406 09006KT 7000 FEW040 BECMG 2306/2308 22012KT 9999 SCT040

Aktuella väderrapporter och prognoser från 4000 flygplatser (METAR- och TAF-rapporter).

De tillgängliga stationerna syns som gula och röda prickar på kartan.

För musen över prickarna för att se namnen på stationerna.

Klicka sedan för att få väderrapporter och prognoser.

För att ändra kartan: Klicka på de gröna knapparna med ett svart kors på för att zooma in; den gröna knappen med ett streck på för att zooma ut; eller på de gröna pilarna för angränsande kartor.


METAR-TAF: